createdAt,value
2023-03-29T00:00:12.581Z,9.56
2023-03-29T00:02:40.706Z,9.53
2023-03-29T00:05:10.680Z,9.51
2023-03-29T00:07:38.351Z,9.39
2023-03-29T00:10:07.634Z,9.49
2023-03-29T00:12:35.615Z,9.52
2023-03-29T00:15:04.214Z,9.60
2023-03-29T00:17:31.440Z,9.68
2023-03-29T00:19:59.989Z,9.65
2023-03-29T00:22:28.205Z,9.60
2023-03-29T00:24:55.795Z,9.71
2023-03-29T00:27:23.590Z,9.78
2023-03-29T00:29:51.445Z,9.78
2023-03-29T00:32:19.944Z,9.82
2023-03-29T00:34:50.938Z,9.81
2023-03-29T00:37:19.083Z,9.77
2023-03-29T00:39:47.176Z,9.85
2023-03-29T00:42:16.334Z,9.92
2023-03-29T00:45:12.240Z,9.93
2023-03-29T00:47:44.072Z,9.82
2023-03-29T00:50:16.061Z,9.81
2023-03-29T00:52:47.785Z,9.83
2023-03-29T00:55:20.117Z,9.88
2023-03-29T00:57:49.643Z,9.94
2023-03-29T01:00:19.733Z,9.96
2023-03-29T01:03:24.643Z,9.95
2023-03-29T01:05:58.349Z,9.92
2023-03-29T01:08:35.460Z,9.90
2023-03-29T01:11:08.770Z,9.91
2023-03-29T01:13:44.848Z,9.93
2023-03-29T01:16:11.694Z,9.90
2023-03-29T01:18:39.896Z,9.87
2023-03-29T01:21:22.291Z,9.87
2023-03-29T01:23:58.238Z,9.86
2023-03-29T01:26:51.958Z,9.85
2023-03-29T01:29:25.916Z,9.81
2023-03-29T01:32:11.807Z,9.84
2023-03-29T01:34:46.209Z,9.79
2023-03-29T01:37:18.446Z,9.69
2023-03-29T01:39:47.305Z,9.61
2023-03-29T01:42:27.756Z,9.54
2023-03-29T01:45:00.503Z,9.41
2023-03-29T01:48:01.356Z,9.26
2023-03-29T01:50:50.849Z,9.14
2023-03-29T01:53:24.306Z,9.01
2023-03-29T01:55:56.058Z,8.82
2023-03-29T01:58:26.688Z,8.68
2023-03-29T02:00:55.656Z,8.48
2023-03-29T02:03:25.464Z,8.37
2023-03-29T02:05:53.505Z,8.36
2023-03-29T02:08:21.425Z,8.19
2023-03-29T02:10:48.954Z,8.09
2023-03-29T02:13:18.262Z,8.07
2023-03-29T02:15:47.230Z,8.08
2023-03-29T02:18:15.930Z,8.05
2023-03-29T02:20:47.286Z,8.01
2023-03-29T02:23:41.144Z,8.08
2023-03-29T02:26:09.024Z,8.10
2023-03-29T02:28:37.109Z,8.11
2023-03-29T02:31:34.020Z,8.11
2023-03-29T02:34:08.883Z,8.21
2023-03-29T02:36:38.511Z,8.33
2023-03-29T02:39:08.196Z,8.41
2023-03-29T02:41:35.017Z,8.47
2023-03-29T02:44:02.750Z,8.48
2023-03-29T02:46:30.645Z,8.45
2023-03-29T02:48:58.408Z,8.42
2023-03-29T02:51:29.896Z,8.37
2023-03-29T02:54:03.445Z,8.37
2023-03-29T02:56:31.721Z,8.38
2023-03-29T02:58:59.278Z,8.39
2023-03-29T03:01:27.439Z,8.36
2023-03-29T03:03:55.513Z,8.27
2023-03-29T03:06:24.113Z,8.25
2023-03-29T03:08:52.242Z,8.21
2023-03-29T03:11:20.274Z,8.23
2023-03-29T03:13:48.060Z,8.23
2023-03-29T03:16:16.193Z,8.20
2023-03-29T03:18:47.226Z,8.20
2023-03-29T03:21:15.195Z,8.18
2023-03-29T03:23:43.568Z,8.21
2023-03-29T03:26:11.084Z,8.25
2023-03-29T03:28:38.951Z,8.24
2023-03-29T03:31:07.506Z,8.24
2023-03-29T03:33:35.537Z,8.23
2023-03-29T03:36:06.993Z,8.10
2023-03-29T03:38:35.205Z,8.02
2023-03-29T03:41:03.163Z,7.97
2023-03-29T03:43:31.394Z,8.00
2023-03-29T03:45:59.614Z,8.03
2023-03-29T03:48:27.363Z,8.06
2023-03-29T03:50:55.955Z,8.05
2023-03-29T03:53:26.335Z,8.09
2023-03-29T03:55:54.294Z,8.17
2023-03-29T03:58:22.098Z,8.20
2023-03-29T04:00:50.280Z,8.24
2023-03-29T04:03:18.824Z,8.32
2023-03-29T04:05:46.601Z,8.42
2023-03-29T04:08:14.684Z,8.45
2023-03-29T04:10:42.641Z,8.50
2023-03-29T04:13:10.971Z,8.49
2023-03-29T04:15:39.080Z,8.46
2023-03-29T04:18:07.789Z,8.46
2023-03-29T04:20:35.945Z,8.51
2023-03-29T04:23:03.965Z,8.54
2023-03-29T04:25:31.839Z,8.55
2023-03-29T04:27:59.357Z,8.58
2023-03-29T04:30:27.060Z,8.63
2023-03-29T04:32:55.019Z,8.66
2023-03-29T04:35:22.956Z,8.68
2023-03-29T04:37:51.227Z,8.71
2023-03-29T04:40:19.627Z,8.71
2023-03-29T04:42:47.877Z,8.72
2023-03-29T04:45:18.087Z,8.75
2023-03-29T04:47:47.202Z,8.76
2023-03-29T04:50:15.798Z,8.78
2023-03-29T04:52:45.549Z,8.80
2023-03-29T04:55:13.542Z,8.80
2023-03-29T04:57:41.332Z,8.80
2023-03-29T05:00:15.588Z,8.85
2023-03-29T05:02:44.242Z,8.88
2023-03-29T05:05:12.396Z,8.94
2023-03-29T05:07:40.194Z,8.96
2023-03-29T05:10:09.309Z,8.98
2023-03-29T05:12:37.188Z,9.04
2023-03-29T05:15:11.513Z,9.09
2023-03-29T05:17:39.488Z,9.06
2023-03-29T05:20:11.730Z,9.08
2023-03-29T05:22:39.135Z,9.10
2023-03-29T05:25:08.722Z,9.09
2023-03-29T05:27:37.076Z,9.10
2023-03-29T05:30:06.808Z,9.07
2023-03-29T05:32:34.638Z,9.04
2023-03-29T05:35:02.634Z,9.04
2023-03-29T05:37:30.832Z,8.99
2023-03-29T05:40:05.921Z,8.95
2023-03-29T05:42:34.612Z,8.88
2023-03-29T05:45:02.723Z,8.89
2023-03-29T05:47:30.682Z,8.89
2023-03-29T05:49:58.343Z,8.85
2023-03-29T05:52:26.144Z,8.85
2023-03-29T05:54:54.105Z,8.85
2023-03-29T05:57:21.698Z,8.89
2023-03-29T05:59:49.203Z,8.89
2023-03-29T06:02:17.077Z,8.78
2023-03-29T06:04:45.022Z,8.74
2023-03-29T06:07:12.879Z,8.74
2023-03-29T06:09:41.678Z,8.78
2023-03-29T06:12:09.893Z,8.81
2023-03-29T06:14:37.755Z,8.81
2023-03-29T06:17:06.134Z,8.80
2023-03-29T06:19:34.067Z,8.88
2023-03-29T06:22:02.137Z,9.00
2023-03-29T06:24:29.960Z,9.17
2023-03-29T06:26:58.233Z,9.29
2023-03-29T06:29:27.026Z,9.34
2023-03-29T06:31:57.836Z,9.41
2023-03-29T06:34:25.966Z,9.52
2023-03-29T06:36:54.827Z,9.61
2023-03-29T06:39:22.727Z,9.70
2023-03-29T06:41:51.059Z,9.75
2023-03-29T06:44:18.973Z,9.83
2023-03-29T06:46:46.623Z,9.87
2023-03-29T06:49:14.816Z,9.93
2023-03-29T06:51:43.528Z,9.97
2023-03-29T06:54:11.733Z,10.03
2023-03-29T06:56:40.292Z,10.11
2023-03-29T06:59:08.601Z,10.24
2023-03-29T07:01:39.097Z,10.34
2023-03-29T07:04:09.706Z,10.49
2023-03-29T07:06:39.859Z,10.58
2023-03-29T07:09:10.383Z,10.66
2023-03-29T07:11:39.664Z,10.74
2023-03-29T07:14:08.484Z,10.83
2023-03-29T07:16:38.209Z,10.94
2023-03-29T07:19:06.872Z,11.06
2023-03-29T07:21:36.705Z,11.17
2023-03-29T07:24:07.584Z,11.27
2023-03-29T07:26:40.481Z,11.34
2023-03-29T07:29:12.439Z,11.49
2023-03-29T07:31:42.258Z,11.55
2023-03-29T07:34:13.850Z,11.65
2023-03-29T07:36:44.109Z,11.65
2023-03-29T07:39:15.869Z,11.67
2023-03-29T07:41:44.321Z,11.80
2023-03-29T07:44:12.520Z,11.91
2023-03-29T07:46:43.347Z,11.93
2023-03-29T07:49:11.001Z,12.01
2023-03-29T07:51:39.498Z,12.08
2023-03-29T07:54:08.373Z,12.13
2023-03-29T07:56:36.132Z,12.27
2023-03-29T07:59:04.054Z,12.33
2023-03-29T08:01:32.813Z,12.45
2023-03-29T08:04:00.940Z,12.56
2023-03-29T08:06:28.699Z,12.69
2023-03-29T08:08:56.372Z,12.72
2023-03-29T08:11:24.697Z,12.71
2023-03-29T08:13:53.069Z,12.76
2023-03-29T08:16:20.762Z,12.90
2023-03-29T08:18:49.383Z,13.00
2023-03-29T08:21:17.175Z,13.06
2023-03-29T08:23:44.630Z,13.08
2023-03-29T08:26:12.416Z,13.14
2023-03-29T08:28:40.498Z,13.23
2023-03-29T08:31:08.665Z,13.37
2023-03-29T08:33:37.133Z,13.47
2023-03-29T08:36:06.716Z,13.51
2023-03-29T08:38:34.871Z,13.55
2023-03-29T08:41:02.771Z,13.68
2023-03-29T08:43:53.806Z,13.69
2023-03-29T08:46:42.423Z,13.76
2023-03-29T08:49:09.291Z,13.88
2023-03-29T08:51:43.285Z,14.03
2023-03-29T08:54:18.820Z,14.09
2023-03-29T08:56:47.817Z,14.07
2023-03-29T08:59:44.030Z,14.10
2023-03-29T09:02:32.955Z,14.00
2023-03-29T09:05:08.595Z,14.12
2023-03-29T09:07:36.535Z,14.15
2023-03-29T09:10:05.181Z,14.18
2023-03-29T09:12:32.082Z,14.25
2023-03-29T09:15:28.834Z,14.33
2023-03-29T09:18:36.683Z,14.47
2023-03-29T09:21:23.442Z,14.53
2023-03-29T09:24:02.212Z,14.60
2023-03-29T09:27:01.143Z,14.65
2023-03-29T09:29:31.053Z,14.63
2023-03-29T09:32:04.292Z,14.67
2023-03-29T09:34:36.243Z,14.75
2023-03-29T09:37:22.380Z,14.80
2023-03-29T09:39:50.086Z,14.94
2023-03-29T09:42:17.955Z,15.00
2023-03-29T09:44:51.979Z,14.98
2023-03-29T09:47:28.970Z,15.03
2023-03-29T09:50:30.197Z,15.07
2023-03-29T09:52:59.058Z,15.05
2023-03-29T09:55:28.287Z,15.11
2023-03-29T09:58:08.055Z,15.09
2023-03-29T10:00:35.502Z,15.14
2023-03-29T10:03:03.526Z,15.30
2023-03-29T10:05:32.064Z,15.35
2023-03-29T10:08:00.518Z,15.34
2023-03-29T10:10:32.502Z,15.30
2023-03-29T10:13:13.698Z,15.40
2023-03-29T10:16:03.503Z,15.35
2023-03-29T10:18:33.030Z,15.58
2023-03-29T10:21:01.929Z,15.69
2023-03-29T10:23:34.533Z,15.73
2023-03-29T10:26:04.429Z,15.82
2023-03-29T10:28:32.120Z,15.89
2023-03-29T10:31:01.014Z,16.07
2023-03-29T10:33:34.135Z,15.98
2023-03-29T10:36:06.907Z,16.00
2023-03-29T10:38:35.115Z,16.12
2023-03-29T10:41:10.152Z,16.10
2023-03-29T10:43:39.541Z,16.31
2023-03-29T10:46:31.391Z,16.47
2023-03-29T10:48:59.181Z,16.36
2023-03-29T10:51:31.434Z,16.33
2023-03-29T10:53:59.679Z,16.85
2023-03-29T10:56:27.131Z,17.42
2023-03-29T10:58:59.523Z,18.34
2023-03-29T11:01:48.855Z,19.56
2023-03-29T11:04:18.878Z,20.44
2023-03-29T11:06:45.502Z,20.84
2023-03-29T11:09:49.872Z,20.96
2023-03-29T11:12:51.278Z,21.30
2023-03-29T11:15:30.061Z,20.81
2023-03-29T11:18:34.486Z,20.50
2023-03-29T11:21:40.081Z,20.61
2023-03-29T11:24:15.788Z,20.19
2023-03-29T11:26:49.624Z,20.16
2023-03-29T11:29:44.610Z,20.36
2023-03-29T11:32:17.887Z,20.63
2023-03-29T11:35:12.760Z,20.30
2023-03-29T11:37:49.807Z,19.29
2023-03-29T11:40:23.512Z,18.62
2023-03-29T11:42:51.582Z,18.50
2023-03-29T11:45:28.503Z,18.28
2023-03-29T11:47:59.669Z,18.19
2023-03-29T11:50:42.280Z,17.98
2023-03-29T11:53:11.688Z,17.70
2023-03-29T11:55:41.479Z,17.84
2023-03-29T11:58:31.436Z,17.90
2023-03-29T12:01:01.781Z,18.10
2023-03-29T12:03:46.744Z,18.39
2023-03-29T12:06:20.037Z,18.84
2023-03-29T12:09:01.739Z,19.37
2023-03-29T12:11:54.851Z,19.53
2023-03-29T12:14:27.362Z,19.84
2023-03-29T12:17:05.836Z,20.28
2023-03-29T12:19:42.731Z,20.64
2023-03-29T12:22:11.271Z,21.03
2023-03-29T12:24:40.594Z,20.63
2023-03-29T12:27:10.583Z,20.43
2023-03-29T12:30:34.449Z,20.79
2023-03-29T12:33:28.317Z,21.26
2023-03-29T12:35:55.420Z,21.58
2023-03-29T12:38:23.067Z,21.97
2023-03-29T12:40:55.521Z,22.11
2023-03-29T12:43:28.286Z,21.95
2023-03-29T12:45:58.693Z,21.40
2023-03-29T12:48:27.298Z,21.42
2023-03-29T12:50:57.323Z,22.00
2023-03-29T12:53:28.897Z,22.23
2023-03-29T12:55:56.846Z,22.32
2023-03-29T12:58:28.037Z,22.20
2023-03-29T13:01:06.900Z,22.41
2023-03-29T13:03:40.052Z,22.02
2023-03-29T13:06:09.321Z,21.94
2023-03-29T13:08:44.725Z,22.03
2023-03-29T13:11:24.776Z,21.27
2023-03-29T13:13:52.358Z,21.81
2023-03-29T13:16:20.458Z,21.86
2023-03-29T13:18:56.297Z,22.30
2023-03-29T13:21:47.963Z,22.47
2023-03-29T13:24:33.776Z,22.30
2023-03-29T13:27:06.685Z,22.16
2023-03-29T13:29:51.757Z,22.92
2023-03-29T13:33:02.973Z,23.46
2023-03-29T13:36:08.727Z,23.31
2023-03-29T13:38:51.675Z,23.88
2023-03-29T13:41:44.545Z,24.00
2023-03-29T13:44:29.770Z,23.79
2023-03-29T13:47:30.104Z,23.69
2023-03-29T13:49:58.556Z,23.75
2023-03-29T13:52:29.088Z,24.22
2023-03-29T13:55:08.634Z,24.25
2023-03-29T13:57:42.608Z,24.55
2023-03-29T14:00:18.662Z,24.22
2023-03-29T14:02:55.885Z,24.16
2023-03-29T14:05:29.435Z,24.60
2023-03-29T14:07:57.358Z,24.00
2023-03-29T14:10:46.755Z,24.29
2023-03-29T14:13:15.269Z,24.42
2023-03-29T14:15:52.995Z,25.03
2023-03-29T14:18:24.292Z,24.88
2023-03-29T14:20:54.891Z,24.97
2023-03-29T14:23:25.705Z,25.20
2023-03-29T14:25:53.645Z,25.22
2023-03-29T14:28:44.927Z,25.55
2023-03-29T14:31:42.212Z,25.35
2023-03-29T14:34:17.096Z,25.02
2023-03-29T14:36:48.888Z,24.05
2023-03-29T14:39:17.492Z,24.19
2023-03-29T14:41:53.946Z,24.17
2023-03-29T14:44:22.593Z,24.19
2023-03-29T14:46:49.630Z,24.02
2023-03-29T14:49:17.885Z,24.12
2023-03-29T14:51:45.508Z,24.77
2023-03-29T14:54:33.286Z,25.20
2023-03-29T14:57:09.718Z,25.21
2023-03-29T14:59:38.681Z,24.97
2023-03-29T15:02:07.367Z,24.93
2023-03-29T15:04:39.694Z,25.23
2023-03-29T15:07:08.275Z,25.37
2023-03-29T15:09:36.241Z,25.08
2023-03-29T15:12:04.057Z,24.77
2023-03-29T15:14:34.750Z,24.99
2023-03-29T15:17:14.953Z,24.44
2023-03-29T15:19:43.127Z,24.33
2023-03-29T15:22:11.477Z,24.07
2023-03-29T15:24:47.991Z,23.57
2023-03-29T15:27:19.721Z,23.14
2023-03-29T15:29:47.441Z,22.97
2023-03-29T15:32:22.571Z,22.90
2023-03-29T15:35:00.614Z,22.92
2023-03-29T15:37:28.287Z,23.08
2023-03-29T15:39:56.465Z,23.02
2023-03-29T15:42:24.509Z,23.02
2023-03-29T15:44:56.592Z,22.88
2023-03-29T15:47:24.179Z,23.03
2023-03-29T15:49:51.816Z,23.05
2023-03-29T15:52:20.442Z,23.32
2023-03-29T15:54:48.653Z,23.44
2023-03-29T15:57:15.880Z,23.92
2023-03-29T15:59:43.387Z,23.67
2023-03-29T16:02:15.875Z,24.15
2023-03-29T16:04:43.338Z,24.68
2023-03-29T16:07:15.155Z,24.98
2023-03-29T16:09:42.780Z,25.34
2023-03-29T16:12:10.809Z,25.23
2023-03-29T16:14:38.125Z,24.39
2023-03-29T16:17:25.579Z,23.69
2023-03-29T16:19:53.823Z,23.35
2023-03-29T16:22:21.899Z,23.15
2023-03-29T16:24:49.699Z,23.36
2023-03-29T16:27:20.912Z,23.32
2023-03-29T16:29:49.226Z,22.90
2023-03-29T16:32:16.820Z,22.64
2023-03-29T16:34:44.727Z,22.55
2023-03-29T16:37:15.201Z,22.43
2023-03-29T16:39:43.549Z,22.34
2023-03-29T16:42:11.365Z,22.21
2023-03-29T16:44:42.092Z,22.09
2023-03-29T16:47:13.070Z,22.09
2023-03-29T16:49:41.480Z,21.93
2023-03-29T16:52:10.382Z,21.85
2023-03-29T16:54:38.619Z,21.80
2023-03-29T16:57:08.402Z,21.57
2023-03-29T16:59:36.301Z,21.41
2023-03-29T17:02:07.564Z,21.24
2023-03-29T17:04:36.197Z,21.01
2023-03-29T17:07:03.799Z,20.73
2023-03-29T17:09:32.235Z,20.47
2023-03-29T17:12:00.236Z,20.26
2023-03-29T17:14:28.354Z,20.08
2023-03-29T17:16:56.091Z,19.92
2023-03-29T17:19:23.955Z,19.73
2023-03-29T17:21:51.848Z,19.51
2023-03-29T17:24:19.809Z,19.34
2023-03-29T17:26:47.379Z,19.19
2023-03-29T17:29:15.539Z,19.05
2023-03-29T17:31:47.865Z,18.93
2023-03-29T17:34:16.949Z,18.82
2023-03-29T17:36:45.796Z,18.69
2023-03-29T17:39:18.768Z,18.52
2023-03-29T17:41:47.109Z,18.38
2023-03-29T17:44:15.390Z,18.17
2023-03-29T17:46:46.335Z,17.99
2023-03-29T17:49:17.884Z,17.86
2023-03-29T17:51:47.999Z,17.72
2023-03-29T17:54:16.631Z,17.67
2023-03-29T17:56:44.413Z,17.56
2023-03-29T17:59:13.204Z,17.44
2023-03-29T18:01:41.825Z,17.37
2023-03-29T18:04:27.180Z,17.28
2023-03-29T18:06:56.373Z,17.24
2023-03-29T18:09:26.013Z,17.17
2023-03-29T18:12:04.561Z,17.14
2023-03-29T18:14:49.968Z,17.11
2023-03-29T18:17:20.931Z,17.06
2023-03-29T18:19:51.545Z,17.00
2023-03-29T18:25:14.970Z,16.96
2023-03-29T18:30:30.656Z,16.82
2023-03-29T18:33:02.860Z,16.74
2023-03-29T18:35:31.650Z,16.65
2023-03-29T18:38:03.447Z,16.55
2023-03-29T18:40:32.172Z,16.54
2023-03-29T18:43:06.763Z,16.55
2023-03-29T18:45:53.473Z,16.52
2023-03-29T18:48:22.150Z,16.50
2023-03-29T18:50:54.539Z,16.45
2023-03-29T18:53:22.497Z,16.40
2023-03-29T18:55:50.703Z,16.38
2023-03-29T18:58:20.488Z,16.39
2023-03-29T19:00:52.790Z,16.36
2023-03-29T19:03:21.130Z,16.31
2023-03-29T19:09:10.129Z,16.17
2023-03-29T19:11:44.732Z,16.12
2023-03-29T19:14:14.800Z,16.06
2023-03-29T19:16:42.960Z,16.00
2023-03-29T19:19:11.321Z,15.98
2023-03-29T19:24:33.416Z,15.94
2023-03-29T19:27:01.920Z,15.91
2023-03-29T19:29:35.106Z,15.86
2023-03-29T19:32:02.820Z,15.85
2023-03-29T19:34:31.136Z,15.79
2023-03-29T19:37:00.440Z,15.75
2023-03-29T19:39:30.501Z,15.65
2023-03-29T19:41:58.508Z,15.53
2023-03-29T19:44:28.540Z,15.36
2023-03-29T19:46:56.786Z,15.22
2023-03-29T19:49:25.349Z,15.13
2023-03-29T19:51:55.102Z,15.09
2023-03-29T19:54:23.574Z,15.03
2023-03-29T19:56:52.852Z,14.98
2023-03-29T19:59:21.138Z,14.96
2023-03-29T20:01:51.875Z,14.94
2023-03-29T20:04:20.026Z,14.92
2023-03-29T20:06:47.278Z,14.84
2023-03-29T20:09:16.801Z,14.78
2023-03-29T20:11:44.611Z,14.72
2023-03-29T20:14:12.419Z,14.64
2023-03-29T20:16:41.020Z,14.56
2023-03-29T20:19:09.833Z,14.54
2023-03-29T20:21:37.556Z,14.54
2023-03-29T20:24:09.429Z,14.55
2023-03-29T20:26:37.502Z,14.52
2023-03-29T20:29:05.354Z,14.45
2023-03-29T20:31:33.584Z,14.32
2023-03-29T20:34:01.864Z,14.16
2023-03-29T20:36:32.460Z,14.00
2023-03-29T20:39:01.848Z,13.96
2023-03-29T20:41:34.857Z,14.00
2023-03-29T20:44:03.363Z,14.00
2023-03-29T20:46:34.446Z,14.12
2023-03-29T20:49:05.378Z,14.24
2023-03-29T20:51:33.711Z,14.30
2023-03-29T20:54:04.870Z,14.34
2023-03-29T20:56:40.048Z,14.41
2023-03-29T20:59:17.130Z,14.46
2023-03-29T21:01:45.558Z,14.52
2023-03-29T21:04:13.576Z,14.51
2023-03-29T21:06:42.244Z,14.53
2023-03-29T21:09:10.149Z,14.53
2023-03-29T21:11:38.743Z,14.54
2023-03-29T21:14:08.026Z,14.59
2023-03-29T21:16:36.289Z,14.66
2023-03-29T21:19:04.466Z,14.70
2023-03-29T21:21:33.736Z,14.69
2023-03-29T21:24:02.323Z,14.69
2023-03-29T21:26:30.614Z,14.67
2023-03-29T21:28:58.510Z,14.63
2023-03-29T21:31:30.136Z,14.64
2023-03-29T21:34:04.207Z,14.69
2023-03-29T21:36:40.402Z,14.66
2023-03-29T21:39:10.293Z,14.68
2023-03-29T21:41:45.207Z,14.66
2023-03-29T21:44:18.120Z,14.71
2023-03-29T21:46:47.341Z,14.74
2023-03-29T21:49:16.582Z,14.71
2023-03-29T21:51:44.653Z,14.65
2023-03-29T21:54:13.250Z,14.57
2023-03-29T21:56:41.502Z,14.60
2023-03-29T21:59:09.595Z,14.57
2023-03-29T22:01:38.006Z,14.51
2023-03-29T22:04:06.275Z,14.48
2023-03-29T22:06:34.941Z,14.43
2023-03-29T22:09:03.214Z,14.40
2023-03-29T22:11:31.875Z,14.41
2023-03-29T22:14:00.664Z,14.32
2023-03-29T22:16:40.209Z,14.31
2023-03-29T22:19:14.408Z,14.21
2023-03-29T22:21:43.337Z,14.17
2023-03-29T22:24:16.810Z,14.13
2023-03-29T22:26:55.869Z,14.11
2023-03-29T22:29:24.039Z,14.13
2023-03-29T22:31:53.198Z,14.11
2023-03-29T22:34:21.092Z,14.13
2023-03-29T22:36:57.472Z,14.06
2023-03-29T22:39:25.468Z,14.08
2023-03-29T22:41:53.935Z,14.01
2023-03-29T22:44:21.474Z,14.00
2023-03-29T22:46:49.067Z,13.98
2023-03-29T22:52:27.824Z,14.03
2023-03-29T22:54:56.033Z,14.01
2023-03-29T22:57:24.915Z,14.00
2023-03-29T22:59:53.647Z,13.94
2023-03-29T23:02:22.235Z,13.89
2023-03-29T23:04:56.082Z,13.86
2023-03-29T23:07:24.614Z,13.85
2023-03-29T23:09:53.148Z,13.79
2023-03-29T23:12:24.693Z,13.82
2023-03-29T23:14:53.689Z,13.88
2023-03-29T23:17:22.031Z,13.85
2023-03-29T23:19:56.086Z,13.89
2023-03-29T23:22:24.398Z,13.89
2023-03-29T23:24:52.045Z,13.90
2023-03-29T23:27:26.061Z,13.80
2023-03-29T23:29:55.425Z,13.80
2023-03-29T23:32:23.049Z,13.76
2023-03-29T23:34:51.635Z,13.77
2023-03-29T23:37:19.639Z,13.78
2023-03-29T23:39:48.342Z,13.77
2023-03-29T23:42:16.340Z,13.75
2023-03-29T23:44:48.103Z,13.72
2023-03-29T23:47:17.049Z,13.67
2023-03-29T23:49:45.499Z,13.63
2023-03-29T23:52:14.191Z,13.64
2023-03-29T23:54:42.596Z,13.54
2023-03-29T23:57:28.958Z,13.48
